createdAt,value
2023-07-06T00:00:28.536Z,198.50
2023-07-06T00:01:28.624Z,198.22
2023-07-06T00:02:28.606Z,193.08
2023-07-06T00:03:28.649Z,195.82
2023-07-06T00:04:28.606Z,194.82
2023-07-06T00:05:28.655Z,195.72
2023-07-06T00:06:28.670Z,192.74
2023-07-06T00:07:28.734Z,195.23
2023-07-06T00:08:28.865Z,194.94
2023-07-06T00:09:28.766Z,196.28
2023-07-06T00:10:28.822Z,193.73
2023-07-06T00:11:28.850Z,195.97
2023-07-06T00:12:28.885Z,196.47
2023-07-06T00:13:28.913Z,194.01
2023-07-06T00:14:28.929Z,195.24
2023-07-06T00:15:28.972Z,194.67
2023-07-06T00:16:29.043Z,193.08
2023-07-06T00:17:29.034Z,193.93
2023-07-06T00:18:29.030Z,196.07
2023-07-06T00:19:29.069Z,195.82
2023-07-06T00:20:29.106Z,194.34
2023-07-06T00:21:29.108Z,191.85
2023-07-06T00:22:29.137Z,194.08
2023-07-06T00:23:29.147Z,195.66
2023-07-06T00:24:29.173Z,191.80
2023-07-06T00:25:29.226Z,194.97
2023-07-06T00:26:29.241Z,192.71
2023-07-06T00:27:29.261Z,192.55
2023-07-06T00:28:29.329Z,194.24
2023-07-06T00:29:29.313Z,192.55
2023-07-06T00:30:29.331Z,191.89
2023-07-06T00:31:29.380Z,195.97
2023-07-06T00:32:29.796Z,191.70
2023-07-06T00:33:29.417Z,193.46
2023-07-06T00:34:29.425Z,192.48
2023-07-06T00:35:29.452Z,190.07
2023-07-06T00:36:29.462Z,191.26
2023-07-06T00:37:29.459Z,192.38
2023-07-06T00:38:29.485Z,191.44
2023-07-06T00:39:29.507Z,191.68
2023-07-06T00:40:29.537Z,191.39
2023-07-06T00:41:29.568Z,191.33
2023-07-06T00:42:29.593Z,188.87
2023-07-06T00:43:29.659Z,189.92
2023-07-06T00:44:29.645Z,196.12
2023-07-06T00:45:29.663Z,192.50
2023-07-06T00:46:29.721Z,192.62
2023-07-06T00:47:29.735Z,191.42
2023-07-06T00:48:29.755Z,190.07
2023-07-06T00:49:29.774Z,193.51
2023-07-06T00:50:29.816Z,191.05
2023-07-06T00:51:29.859Z,190.92
2023-07-06T00:52:29.880Z,189.61
2023-07-06T00:53:29.898Z,189.48
2023-07-06T00:54:29.919Z,189.94
2023-07-06T00:55:29.935Z,189.03
2023-07-06T00:56:29.950Z,190.81
2023-07-06T00:57:29.988Z,191.61
2023-07-06T00:58:30.005Z,192.49
2023-07-06T00:59:30.037Z,191.64
2023-07-06T01:00:30.055Z,189.01
2023-07-06T01:01:30.095Z,190.36
2023-07-06T01:02:30.158Z,189.03
2023-07-06T01:03:30.177Z,192.36
2023-07-06T01:04:30.101Z,190.61
2023-07-06T01:05:30.122Z,188.62
2023-07-06T01:06:30.112Z,191.41
2023-07-06T01:07:30.130Z,187.80
2023-07-06T01:08:30.119Z,190.56
2023-07-06T01:09:30.122Z,187.83
2023-07-06T01:10:30.179Z,189.38
2023-07-06T01:11:30.119Z,186.26
2023-07-06T01:12:30.136Z,189.79
2023-07-06T01:13:30.215Z,191.59
2023-07-06T01:14:30.175Z,186.78
2023-07-06T01:15:30.175Z,186.60
2023-07-06T01:16:30.269Z,190.25
2023-07-06T01:17:30.194Z,185.46
2023-07-06T01:18:30.206Z,187.19
2023-07-06T01:19:30.244Z,186.07
2023-07-06T01:20:30.281Z,186.76
2023-07-06T01:21:30.291Z,185.45
2023-07-06T01:22:30.296Z,186.47
2023-07-06T01:23:30.316Z,188.39
2023-07-06T01:24:30.352Z,185.51
2023-07-06T01:25:30.374Z,187.71
2023-07-06T01:26:30.391Z,185.75
2023-07-06T01:27:30.404Z,186.39
2023-07-06T01:28:30.432Z,183.58
2023-07-06T01:29:30.494Z,184.68
2023-07-06T01:30:30.464Z,186.87
2023-07-06T01:31:30.646Z,186.74
2023-07-06T01:32:30.532Z,185.66
2023-07-06T01:33:30.527Z,185.63
2023-07-06T01:34:30.525Z,187.42
2023-07-06T01:35:30.506Z,188.50
2023-07-06T01:36:30.519Z,186.62
2023-07-06T01:37:30.573Z,186.57
2023-07-06T01:38:30.548Z,184.92
2023-07-06T01:39:30.615Z,187.52
2023-07-06T01:40:30.568Z,185.10
2023-07-06T01:41:30.573Z,187.59
2023-07-06T01:42:30.551Z,184.72
2023-07-06T01:43:30.534Z,185.13
2023-07-06T01:44:30.537Z,181.96
2023-07-06T01:45:30.532Z,186.44
2023-07-06T01:46:30.532Z,184.14
2023-07-06T01:47:30.585Z,188.57
2023-07-06T01:48:30.538Z,185.46
2023-07-06T01:49:30.565Z,182.79
2023-07-06T01:50:30.557Z,182.98
2023-07-06T01:51:30.553Z,184.15
2023-07-06T01:52:30.545Z,180.74
2023-07-06T01:53:30.543Z,179.60
2023-07-06T01:54:30.553Z,181.50
2023-07-06T01:55:30.523Z,186.92
2023-07-06T01:56:30.517Z,178.70
2023-07-06T01:57:30.511Z,182.50
2023-07-06T01:58:30.528Z,184.17
2023-07-06T01:59:30.532Z,181.45
2023-07-06T02:00:30.554Z,180.53
2023-07-06T02:01:30.552Z,182.15
2023-07-06T02:02:30.564Z,182.53
2023-07-06T02:03:30.606Z,179.56
2023-07-06T02:04:30.537Z,179.68
2023-07-06T02:05:30.568Z,181.72
2023-07-06T02:06:30.556Z,179.01
2023-07-06T02:07:30.605Z,182.23
2023-07-06T02:08:30.625Z,180.08
2023-07-06T02:09:30.657Z,180.94
2023-07-06T02:10:30.689Z,183.63
2023-07-06T02:11:30.729Z,182.91
2023-07-06T02:12:30.750Z,182.72
2023-07-06T02:13:30.824Z,183.49
2023-07-06T02:14:30.789Z,182.37
2023-07-06T02:15:30.819Z,180.28
2023-07-06T02:16:30.875Z,180.97
2023-07-06T02:17:30.876Z,181.02
2023-07-06T02:18:30.920Z,180.10
2023-07-06T02:19:30.962Z,179.83
2023-07-06T02:20:31.017Z,177.19
2023-07-06T02:21:31.008Z,180.54
2023-07-06T02:22:31.016Z,179.82
2023-07-06T02:23:31.023Z,180.11
2023-07-06T02:24:31.018Z,178.00
2023-07-06T02:25:31.030Z,182.02
2023-07-06T02:26:31.062Z,179.13
2023-07-06T02:27:31.079Z,180.28
2023-07-06T02:28:31.089Z,182.07
2023-07-06T02:29:31.120Z,178.41
2023-07-06T02:30:31.163Z,178.66
2023-07-06T02:31:31.184Z,177.70
2023-07-06T02:32:31.268Z,179.46
2023-07-06T02:33:31.259Z,177.39
2023-07-06T02:34:31.280Z,176.15
2023-07-06T02:35:31.341Z,178.21
2023-07-06T02:36:31.319Z,179.75
2023-07-06T02:37:31.342Z,177.99
2023-07-06T02:38:31.361Z,176.76
2023-07-06T02:39:31.377Z,177.61
2023-07-06T02:40:31.412Z,178.00
2023-07-06T02:41:31.412Z,177.68
2023-07-06T02:42:31.503Z,178.02
2023-07-06T02:43:31.466Z,178.14
2023-07-06T02:44:31.496Z,176.43
2023-07-06T02:45:31.575Z,179.29
2023-07-06T02:46:31.602Z,176.65
2023-07-06T02:47:31.620Z,178.86
2023-07-06T02:48:31.655Z,176.39
2023-07-06T02:49:31.684Z,176.36
2023-07-06T02:50:31.700Z,179.59
2023-07-06T02:51:31.715Z,178.46
2023-07-06T02:52:31.775Z,176.56
2023-07-06T02:53:31.800Z,175.50
2023-07-06T02:54:31.821Z,176.59
2023-07-06T02:55:31.868Z,177.05
2023-07-06T02:56:31.904Z,174.98
2023-07-06T02:57:31.915Z,179.04
2023-07-06T02:58:31.946Z,174.95
2023-07-06T02:59:31.964Z,177.16
2023-07-06T03:00:31.966Z,175.20
2023-07-06T03:01:32.009Z,175.84
2023-07-06T03:02:32.066Z,176.58
2023-07-06T03:03:32.143Z,177.04
2023-07-06T03:04:32.097Z,176.63
2023-07-06T03:05:32.140Z,177.51
2023-07-06T03:06:32.160Z,178.29
2023-07-06T03:07:32.204Z,174.64
2023-07-06T03:08:32.222Z,174.91
2023-07-06T03:09:32.243Z,175.75
2023-07-06T03:10:32.267Z,176.30
2023-07-06T03:11:32.268Z,173.01
2023-07-06T03:12:32.280Z,174.82
2023-07-06T03:13:32.447Z,175.22
2023-07-06T03:14:32.325Z,175.36
2023-07-06T03:15:32.343Z,175.06
2023-07-06T03:16:32.432Z,172.48
2023-07-06T03:17:32.436Z,176.59
2023-07-06T03:18:32.519Z,173.28
2023-07-06T03:19:32.478Z,173.58
2023-07-06T03:20:32.484Z,172.21
2023-07-06T03:21:32.497Z,174.90
2023-07-06T03:22:32.601Z,176.25
2023-07-06T03:23:32.554Z,173.71
2023-07-06T03:24:34.442Z,174.40
2023-07-06T03:25:32.580Z,172.18
2023-07-06T03:26:32.624Z,175.30
2023-07-06T03:27:32.630Z,173.53
2023-07-06T03:28:32.660Z,172.99
2023-07-06T03:29:32.682Z,174.68
2023-07-06T03:30:32.707Z,174.45
2023-07-06T03:31:32.785Z,174.58
2023-07-06T03:32:32.803Z,173.69
2023-07-06T03:33:32.765Z,172.87
2023-07-06T03:34:32.785Z,172.82
2023-07-06T03:35:32.779Z,175.85
2023-07-06T03:36:32.797Z,171.68
2023-07-06T03:37:32.783Z,171.36
2023-07-06T03:38:32.792Z,175.00
2023-07-06T03:39:32.803Z,170.43
2023-07-06T03:40:32.811Z,169.52
2023-07-06T03:41:32.813Z,173.03
2023-07-06T03:42:32.844Z,173.43
2023-07-06T03:43:32.870Z,171.60
2023-07-06T03:44:32.878Z,173.58
2023-07-06T03:45:32.887Z,171.96
2023-07-06T03:46:33.060Z,171.48
2023-07-06T03:47:32.972Z,173.47
2023-07-06T03:48:33.000Z,169.99
2023-07-06T03:49:33.034Z,171.57
2023-07-06T03:50:33.069Z,170.90
2023-07-06T03:51:33.070Z,167.52
2023-07-06T03:52:33.085Z,170.30
2023-07-06T03:53:33.108Z,170.13
2023-07-06T03:54:33.111Z,169.50
2023-07-06T03:55:33.155Z,169.91
2023-07-06T03:56:33.180Z,169.54
2023-07-06T03:57:33.200Z,171.17
2023-07-06T03:58:33.242Z,173.74
2023-07-06T03:59:33.271Z,173.30
2023-07-06T04:00:33.286Z,169.35
2023-07-06T04:01:33.332Z,169.97
2023-07-06T04:02:33.360Z,171.12
2023-07-06T04:03:33.425Z,170.26
2023-07-06T04:04:33.408Z,169.49
2023-07-06T04:05:33.533Z,168.93
2023-07-06T04:06:33.477Z,169.43
2023-07-06T04:07:33.510Z,166.20
2023-07-06T04:08:33.541Z,169.49
2023-07-06T04:09:33.566Z,170.64
2023-07-06T04:10:33.601Z,169.44
2023-07-06T04:11:33.587Z,169.62
2023-07-06T04:12:33.592Z,170.96
2023-07-06T04:13:33.664Z,169.68
2023-07-06T04:14:33.628Z,167.63
2023-07-06T04:15:33.598Z,168.08
2023-07-06T04:16:33.611Z,166.16
2023-07-06T04:17:33.721Z,165.37
2023-07-06T04:18:33.597Z,168.76
2023-07-06T04:19:33.615Z,169.67
2023-07-06T04:20:33.636Z,168.25
2023-07-06T04:21:33.641Z,167.14
2023-07-06T04:22:33.676Z,170.25
2023-07-06T04:23:33.637Z,168.37
2023-07-06T04:24:33.709Z,166.67
2023-07-06T04:25:33.657Z,167.70
2023-07-06T04:26:33.686Z,166.08
2023-07-06T04:27:33.696Z,165.98
2023-07-06T04:28:33.722Z,167.06
2023-07-06T04:29:33.717Z,166.88
2023-07-06T04:30:33.729Z,164.98
2023-07-06T04:31:33.911Z,168.02
2023-07-06T04:32:33.793Z,164.75
2023-07-06T04:33:33.756Z,166.78
2023-07-06T04:34:33.774Z,168.00
2023-07-06T04:35:33.790Z,164.95
2023-07-06T04:36:33.771Z,166.10
2023-07-06T04:37:33.768Z,168.00
2023-07-06T04:38:33.757Z,164.54
2023-07-06T04:39:33.753Z,166.48
2023-07-06T04:40:33.766Z,166.63
2023-07-06T04:41:33.729Z,165.31
2023-07-06T04:42:33.747Z,166.86
2023-07-06T04:43:33.721Z,162.71
2023-07-06T04:44:33.738Z,165.75
2023-07-06T04:45:33.723Z,163.73
2023-07-06T04:46:33.777Z,166.08
2023-07-06T04:47:33.736Z,165.33
2023-07-06T04:48:33.716Z,164.03
2023-07-06T04:49:33.720Z,167.06
2023-07-06T04:50:33.729Z,165.77
2023-07-06T04:51:33.742Z,163.82
2023-07-06T04:52:33.754Z,162.66
2023-07-06T04:53:34.177Z,163.90
2023-07-06T04:54:33.763Z,162.28
2023-07-06T04:55:33.742Z,165.16
2023-07-06T04:56:33.752Z,161.47
2023-07-06T04:57:33.749Z,161.41
2023-07-06T04:58:33.738Z,161.51
2023-07-06T04:59:33.757Z,163.26
2023-07-06T05:00:33.767Z,162.85
2023-07-06T05:01:33.773Z,166.56
2023-07-06T05:02:33.807Z,162.69
2023-07-06T05:03:33.848Z,160.12
2023-07-06T05:04:33.784Z,164.84
2023-07-06T05:05:33.787Z,163.27
2023-07-06T05:06:33.814Z,159.30
2023-07-06T05:07:33.804Z,164.31
2023-07-06T05:08:33.765Z,163.95
2023-07-06T05:09:33.836Z,162.33
2023-07-06T05:10:33.769Z,162.37
2023-07-06T05:11:33.799Z,162.13
2023-07-06T05:12:33.805Z,162.69
2023-07-06T05:13:33.873Z,162.30
2023-07-06T05:14:33.831Z,162.57
2023-07-06T05:15:33.848Z,162.16
2023-07-06T05:16:33.923Z,162.11
2023-07-06T05:17:33.893Z,161.15
2023-07-06T05:18:33.859Z,162.70
2023-07-06T05:19:33.868Z,159.94
2023-07-06T05:20:33.846Z,161.96
2023-07-06T05:21:34.401Z,160.14
2023-07-06T05:22:33.810Z,158.24
2023-07-06T05:23:33.785Z,158.31
2023-07-06T05:24:33.784Z,157.61
2023-07-06T05:25:33.807Z,155.55
2023-07-06T05:26:33.799Z,157.90
2023-07-06T05:27:33.805Z,159.57
2023-07-06T05:28:33.883Z,159.02
2023-07-06T05:29:33.848Z,158.40
2023-07-06T05:30:34.019Z,158.51
2023-07-06T05:31:33.869Z,158.11
2023-07-06T05:32:33.918Z,156.93
2023-07-06T05:33:34.178Z,155.53
2023-07-06T05:34:33.911Z,160.84
2023-07-06T05:35:33.938Z,159.59
2023-07-06T05:36:33.947Z,156.86
2023-07-06T05:37:36.243Z,157.00
2023-07-06T05:38:33.924Z,156.54
2023-07-06T05:39:33.887Z,157.75
2023-07-06T05:40:33.852Z,157.20
2023-07-06T05:41:33.818Z,160.17
2023-07-06T05:42:33.789Z,155.62
2023-07-06T05:43:33.747Z,161.58
2023-07-06T05:44:33.727Z,159.34
2023-07-06T05:45:33.671Z,157.05
2023-07-06T05:46:33.672Z,157.45
2023-07-06T05:47:33.624Z,155.12
2023-07-06T05:48:33.581Z,151.86
2023-07-06T05:49:33.553Z,151.90
2023-07-06T05:50:33.539Z,153.38
2023-07-06T05:51:33.484Z,150.50
2023-07-06T05:52:33.467Z,155.92
2023-07-06T05:53:33.415Z,156.64
2023-07-06T05:54:33.377Z,154.08
2023-07-06T05:55:33.349Z,155.07
2023-07-06T05:56:33.314Z,156.33
2023-07-06T05:57:33.293Z,157.01
2023-07-06T05:58:33.236Z,157.56
2023-07-06T05:59:33.213Z,160.13
2023-07-06T06:00:33.163Z,160.29
2023-07-06T06:01:33.901Z,162.50
2023-07-06T06:02:33.128Z,162.60
2023-07-06T06:03:33.083Z,165.04
2023-07-06T06:04:33.079Z,164.00
2023-07-06T06:05:33.002Z,163.08
2023-07-06T06:06:32.962Z,162.89
2023-07-06T06:07:32.930Z,163.58
2023-07-06T06:08:32.896Z,163.12
2023-07-06T06:09:32.912Z,163.49
2023-07-06T06:10:32.841Z,166.85
2023-07-06T06:11:32.809Z,166.55
2023-07-06T06:12:32.827Z,165.01
2023-07-06T06:13:32.762Z,169.09
2023-07-06T06:14:32.731Z,167.86
2023-07-06T06:15:32.710Z,167.09
2023-07-06T06:16:32.714Z,167.34
2023-07-06T06:17:32.664Z,166.87
2023-07-06T06:18:32.599Z,168.58
2023-07-06T06:19:32.585Z,169.36
2023-07-06T06:20:32.548Z,166.98
2023-07-06T06:21:32.521Z,170.78
2023-07-06T06:22:32.477Z,168.18
2023-07-06T06:23:32.489Z,169.56
2023-07-06T06:24:32.545Z,167.37
2023-07-06T06:25:32.570Z,168.83
2023-07-06T06:26:32.597Z,168.31
2023-07-06T06:27:32.628Z,170.61
2023-07-06T06:28:32.689Z,169.98
2023-07-06T06:29:32.708Z,169.81
2023-07-06T06:30:32.746Z,167.86
2023-07-06T06:31:32.812Z,169.57
2023-07-06T06:32:32.830Z,168.34
2023-07-06T06:33:32.836Z,170.33
2023-07-06T06:34:32.891Z,164.93
2023-07-06T06:35:32.815Z,159.18
2023-07-06T06:36:32.795Z,152.87
2023-07-06T06:37:32.775Z,148.34
2023-07-06T06:38:32.746Z,146.03
2023-07-06T06:39:32.724Z,142.33
2023-07-06T06:40:32.701Z,134.70
2023-07-06T06:41:32.681Z,135.47
2023-07-06T06:42:32.655Z,130.23
2023-07-06T06:43:32.640Z,127.70
2023-07-06T06:44:32.614Z,120.52
2023-07-06T06:45:32.593Z,117.75
2023-07-06T06:46:32.604Z,117.47
2023-07-06T06:47:32.582Z,114.55
2023-07-06T06:48:32.535Z,113.24
2023-07-06T06:49:32.516Z,111.82
2023-07-06T06:50:32.520Z,112.30
2023-07-06T06:51:32.476Z,105.08
2023-07-06T06:52:32.451Z,105.83
2023-07-06T06:53:32.436Z,106.96
2023-07-06T06:54:32.390Z,104.56
2023-07-06T06:55:32.381Z,105.92
2023-07-06T06:56:32.344Z,105.96
2023-07-06T06:57:32.328Z,101.54
2023-07-06T06:58:32.291Z,102.00
2023-07-06T06:59:32.273Z,104.00
2023-07-06T07:00:32.249Z,100.89
2023-07-06T07:01:32.257Z,99.92
2023-07-06T07:02:32.232Z,100.50
2023-07-06T07:03:32.295Z,99.39
2023-07-06T07:04:32.202Z,98.09
2023-07-06T07:05:32.137Z,96.39
2023-07-06T07:06:32.146Z,98.94
2023-07-06T07:07:32.090Z,99.04
2023-07-06T07:08:32.086Z,94.31
2023-07-06T07:09:32.140Z,97.02
2023-07-06T07:10:32.038Z,94.15
2023-07-06T07:11:32.006Z,94.80
2023-07-06T07:12:32.001Z,95.86
2023-07-06T07:13:31.992Z,92.93
2023-07-06T07:14:31.946Z,99.12
2023-07-06T07:15:31.919Z,96.43
2023-07-06T07:16:31.966Z,95.97
2023-07-06T07:17:31.864Z,91.52
2023-07-06T07:18:31.843Z,90.80
2023-07-06T07:19:31.809Z,89.29
2023-07-06T07:20:31.785Z,88.94
2023-07-06T07:21:31.754Z,88.85
2023-07-06T07:22:31.736Z,86.24
2023-07-06T07:23:31.735Z,86.63
2023-07-06T07:24:31.760Z,85.69
2023-07-06T07:25:31.905Z,87.48
2023-07-06T07:26:31.758Z,87.30
2023-07-06T07:27:31.718Z,87.85
2023-07-06T07:28:31.707Z,85.67
2023-07-06T07:29:31.687Z,82.40
2023-07-06T07:30:32.361Z,84.51
2023-07-06T07:31:31.645Z,84.31
2023-07-06T07:32:31.655Z,83.60
2023-07-06T07:33:31.547Z,81.65
2023-07-06T07:34:31.519Z,83.74
2023-07-06T07:35:31.482Z,81.32
2023-07-06T07:36:31.473Z,80.19
2023-07-06T07:37:31.506Z,81.56
2023-07-06T07:38:31.461Z,81.72
2023-07-06T07:39:31.432Z,80.96
2023-07-06T07:40:31.401Z,79.58
2023-07-06T07:41:31.364Z,77.70
2023-07-06T07:42:31.418Z,78.61
2023-07-06T07:43:31.419Z,77.41
2023-07-06T07:44:31.389Z,77.91
2023-07-06T07:45:31.387Z,77.76
2023-07-06T07:46:31.432Z,79.43
2023-07-06T07:47:31.270Z,75.39
2023-07-06T07:48:31.223Z,75.27
2023-07-06T07:49:31.195Z,76.10
2023-07-06T07:50:31.171Z,78.41
2023-07-06T07:51:31.170Z,76.88
2023-07-06T07:52:31.152Z,74.40
2023-07-06T07:53:31.165Z,75.49
2023-07-06T07:54:31.091Z,76.37
2023-07-06T07:55:31.076Z,71.04
2023-07-06T07:56:31.048Z,73.07
2023-07-06T07:57:31.041Z,75.12
2023-07-06T07:58:31.039Z,72.47
2023-07-06T07:59:31.035Z,71.12
2023-07-06T08:00:31.020Z,72.12
2023-07-06T08:01:31.081Z,72.44
2023-07-06T08:02:31.077Z,74.14
2023-07-06T08:03:31.127Z,72.38
2023-07-06T08:04:31.024Z,68.66
2023-07-06T08:05:31.017Z,72.46
2023-07-06T08:06:31.006Z,71.61
2023-07-06T08:07:30.999Z,72.20
2023-07-06T08:08:30.979Z,71.13
2023-07-06T08:09:30.972Z,71.98
2023-07-06T08:10:30.955Z,69.57
2023-07-06T08:11:30.951Z,67.75
2023-07-06T08:12:30.929Z,69.27
2023-07-06T08:13:31.030Z,70.73
2023-07-06T08:14:30.908Z,68.76
2023-07-06T08:15:30.896Z,70.86
2023-07-06T08:16:30.922Z,71.58
2023-07-06T08:17:30.946Z,69.64
2023-07-06T08:18:30.916Z,66.10
2023-07-06T08:19:56.573Z,66.66
2023-07-06T08:21:14.284Z,66.72
2023-07-06T08:21:38.207Z,66.80
2023-07-06T08:22:31.828Z,67.00
2023-07-06T08:23:30.798Z,67.98
2023-07-06T08:24:30.796Z,69.28
2023-07-06T08:25:30.764Z,67.74
2023-07-06T08:26:30.716Z,68.06
2023-07-06T08:27:30.688Z,69.10
2023-07-06T08:28:30.654Z,70.21
2023-07-06T08:29:30.634Z,70.27
2023-07-06T08:30:30.592Z,71.21
2023-07-06T08:31:30.615Z,69.29
2023-07-06T08:32:30.543Z,66.45
2023-07-06T08:33:30.505Z,67.56
2023-07-06T08:34:30.474Z,66.19
2023-07-06T08:35:30.438Z,69.40
2023-07-06T08:36:30.448Z,67.35
2023-07-06T08:37:30.380Z,71.17
2023-07-06T08:38:30.353Z,66.66
2023-07-06T08:39:30.318Z,67.42
2023-07-06T08:40:30.311Z,66.84
2023-07-06T08:41:30.256Z,71.23
2023-07-06T08:42:30.224Z,62.59
2023-07-06T08:43:30.182Z,67.49
2023-07-06T08:44:30.161Z,63.23
2023-07-06T08:45:30.126Z,64.62
2023-07-06T08:46:30.133Z,64.30
2023-07-06T08:47:30.115Z,64.75
2023-07-06T08:48:30.039Z,62.25
2023-07-06T08:49:30.691Z,61.50
2023-07-06T08:50:29.984Z,60.32
2023-07-06T08:51:29.986Z,58.81
2023-07-06T08:52:29.919Z,58.47
2023-07-06T08:53:29.893Z,60.66
2023-07-06T08:54:29.881Z,60.86
2023-07-06T08:55:29.836Z,59.27
2023-07-06T08:56:29.818Z,60.69
2023-07-06T08:57:29.787Z,57.29
2023-07-06T08:58:29.756Z,56.09
2023-07-06T08:59:29.778Z,57.49
2023-07-06T09:00:29.838Z,57.38
2023-07-06T09:01:29.840Z,58.59
2023-07-06T09:02:29.851Z,58.87
2023-07-06T09:03:29.900Z,61.18
2023-07-06T09:04:29.850Z,59.47
2023-07-06T09:05:29.859Z,58.80
2023-07-06T09:06:29.867Z,60.05
2023-07-06T09:07:29.914Z,60.46
2023-07-06T09:08:29.910Z,57.19
2023-07-06T09:09:29.937Z,56.03
2023-07-06T09:10:30.023Z,59.46
2023-07-06T09:11:29.971Z,52.87
2023-07-06T09:12:30.007Z,51.80
2023-07-06T09:13:30.056Z,51.60
2023-07-06T09:14:30.081Z,51.48
2023-07-06T09:15:30.050Z,53.18
2023-07-06T09:16:30.087Z,50.66
2023-07-06T09:17:30.089Z,44.48
2023-07-06T09:18:30.085Z,46.11
2023-07-06T09:19:30.112Z,42.83
2023-07-06T09:20:30.157Z,45.04
2023-07-06T09:21:30.152Z,44.08
2023-07-06T09:22:30.174Z,45.29
2023-07-06T09:23:30.188Z,44.01
2023-07-06T09:24:30.234Z,41.98
2023-07-06T09:25:30.264Z,41.37
2023-07-06T09:26:33.731Z,45.30
2023-07-06T09:27:30.274Z,43.59
2023-07-06T09:28:30.223Z,47.16
2023-07-06T09:29:30.184Z,46.74
2023-07-06T09:30:30.168Z,44.94
2023-07-06T09:31:30.124Z,45.24
2023-07-06T09:32:30.160Z,45.27
2023-07-06T09:33:31.039Z,43.88
2023-07-06T09:34:30.049Z,46.85
2023-07-06T09:35:29.996Z,44.80
2023-07-06T09:36:29.958Z,43.46
2023-07-06T09:37:29.951Z,46.28
2023-07-06T09:38:29.894Z,48.87
2023-07-06T09:39:29.879Z,49.55
2023-07-06T09:40:31.005Z,47.29
2023-07-06T09:41:29.794Z,48.02
2023-07-06T09:42:29.765Z,47.54
2023-07-06T09:43:29.802Z,44.59
2023-07-06T09:44:29.709Z,46.56
2023-07-06T09:45:29.665Z,43.98
2023-07-06T09:46:29.677Z,43.78
2023-07-06T09:47:29.623Z,42.22
2023-07-06T09:48:29.662Z,44.54
2023-07-06T09:49:29.540Z,44.68
2023-07-06T09:50:29.508Z,46.05
2023-07-06T09:51:29.486Z,47.30
2023-07-06T09:52:29.466Z,51.85
2023-07-06T09:53:29.579Z,47.73
2023-07-06T09:54:29.389Z,49.30
2023-07-06T09:55:29.371Z,46.98
2023-07-06T09:56:29.376Z,49.54
2023-07-06T09:57:29.289Z,45.80
2023-07-06T09:58:29.254Z,45.46
2023-07-06T09:59:29.229Z,48.71
2023-07-06T10:00:29.189Z,50.04
2023-07-06T10:01:29.169Z,52.11
2023-07-06T10:02:29.172Z,51.03
2023-07-06T10:03:29.088Z,45.93
2023-07-06T10:04:29.048Z,46.97
2023-07-06T10:05:29.200Z,48.63
2023-07-06T10:06:28.970Z,54.54
2023-07-06T10:07:28.925Z,53.55
2023-07-06T10:08:28.903Z,52.23
2023-07-06T10:09:28.884Z,52.58
2023-07-06T10:10:28.852Z,53.34
2023-07-06T10:11:28.792Z,59.56
2023-07-06T10:12:28.768Z,55.44
2023-07-06T10:13:28.789Z,53.63
2023-07-06T10:14:28.707Z,54.33
2023-07-06T10:15:28.681Z,54.71
2023-07-06T10:16:28.685Z,50.76
2023-07-06T10:17:28.613Z,49.96
2023-07-06T10:18:28.560Z,52.15
2023-07-06T10:19:28.537Z,51.24
2023-07-06T10:20:28.515Z,50.92
2023-07-06T10:21:28.478Z,53.79
2023-07-06T10:22:28.514Z,53.71
2023-07-06T10:23:28.538Z,52.27
2023-07-06T10:24:28.578Z,53.62
2023-07-06T10:25:28.605Z,51.50
2023-07-06T10:26:28.659Z,54.97
2023-07-06T10:27:28.707Z,51.75
2023-07-06T10:28:28.740Z,54.11
2023-07-06T10:29:28.747Z,59.88
2023-07-06T10:30:28.785Z,61.30
2023-07-06T10:31:29.885Z,58.65
2023-07-06T10:32:28.879Z,59.99
2023-07-06T10:33:28.880Z,59.07
2023-07-06T10:34:28.921Z,58.58
2023-07-06T10:35:28.964Z,56.83
2023-07-06T10:36:28.997Z,56.35
2023-07-06T10:37:29.037Z,59.45
2023-07-06T10:38:29.064Z,57.36
2023-07-06T10:39:29.055Z,56.36
2023-07-06T10:40:29.085Z,59.01
2023-07-06T10:41:30.692Z,59.65
2023-07-06T10:42:29.031Z,63.59
2023-07-06T10:43:28.993Z,64.61
2023-07-06T10:44:28.911Z,61.73
2023-07-06T10:45:28.892Z,63.63
2023-07-06T10:46:28.871Z,60.97
2023-07-06T10:47:30.640Z,61.75
2023-07-06T10:48:28.830Z,61.98
2023-07-06T10:49:28.762Z,62.49
2023-07-06T10:50:28.803Z,64.02
2023-07-06T10:51:28.685Z,64.77
2023-07-06T10:52:28.683Z,65.62
2023-07-06T10:53:29.803Z,68.21
2023-07-06T10:54:28.642Z,67.21
2023-07-06T10:55:28.577Z,68.62
2023-07-06T10:56:28.537Z,68.11
2023-07-06T10:57:28.498Z,67.12
2023-07-06T10:58:28.465Z,68.01
2023-07-06T10:59:29.253Z,66.54
2023-07-06T11:00:28.401Z,66.98
2023-07-06T11:01:28.449Z,67.01
2023-07-06T11:02:28.368Z,66.67
2023-07-06T11:03:28.394Z,71.44
2023-07-06T11:04:28.268Z,69.19
2023-07-06T11:05:30.529Z,69.50
2023-07-06T11:06:28.208Z,70.63
2023-07-06T11:07:28.150Z,73.71
2023-07-06T11:08:28.131Z,70.92
2023-07-06T11:09:28.086Z,72.39
2023-07-06T11:10:28.052Z,74.28
2023-07-06T11:11:28.012Z,75.37
2023-07-06T11:12:27.984Z,73.09
2023-07-06T11:13:27.978Z,73.03
2023-07-06T11:14:27.914Z,74.09
2023-07-06T11:15:27.880Z,75.64
2023-07-06T11:16:27.919Z,76.35
2023-07-06T11:17:27.894Z,75.40
2023-07-06T11:18:27.775Z,74.14
2023-07-06T11:19:27.755Z,71.32
2023-07-06T11:20:27.712Z,75.48
2023-07-06T11:21:30.275Z,76.62
2023-07-06T11:22:27.640Z,76.76
2023-07-06T11:23:27.612Z,77.06
2023-07-06T11:24:27.566Z,77.38
2023-07-06T11:25:27.545Z,77.49
2023-07-06T11:26:27.502Z,79.02
2023-07-06T11:27:27.478Z,80.08
2023-07-06T11:28:27.436Z,79.12
2023-07-06T11:29:27.409Z,79.40
2023-07-06T11:30:27.413Z,79.00
2023-07-06T11:31:27.379Z,80.49
2023-07-06T11:32:27.322Z,79.14
2023-07-06T11:33:27.283Z,82.45
2023-07-06T11:34:27.260Z,83.77
2023-07-06T11:35:27.221Z,82.84
2023-07-06T11:36:27.177Z,81.96
2023-07-06T11:37:27.146Z,82.18
2023-07-06T11:38:27.109Z,83.40
2023-07-06T11:39:27.071Z,81.34
2023-07-06T11:40:27.040Z,85.57
2023-07-06T11:41:27.019Z,82.50
2023-07-06T11:42:26.987Z,82.76
2023-07-06T11:43:26.950Z,83.73
2023-07-06T11:44:26.924Z,83.06
2023-07-06T11:45:26.883Z,82.15
2023-07-06T11:46:26.892Z,85.64
2023-07-06T11:47:26.920Z,83.39
2023-07-06T11:48:26.809Z,83.31
2023-07-06T11:49:26.788Z,85.62
2023-07-06T11:50:26.759Z,85.44
2023-07-06T11:51:26.724Z,86.69
2023-07-06T11:52:26.714Z,84.48
2023-07-06T11:53:26.659Z,85.39
2023-07-06T11:54:27.749Z,86.83
2023-07-06T11:55:27.593Z,87.10
2023-07-06T11:56:26.574Z,87.63
2023-07-06T11:57:26.541Z,88.13
2023-07-06T11:58:28.578Z,91.09
2023-07-06T11:59:26.465Z,94.62
2023-07-06T12:00:26.424Z,92.12
2023-07-06T12:01:26.462Z,94.25
2023-07-06T12:02:26.423Z,92.96
2023-07-06T12:03:26.455Z,93.58
2023-07-06T12:04:26.388Z,93.53
2023-07-06T12:05:26.469Z,93.08
2023-07-06T12:06:26.409Z,95.95
2023-07-06T12:07:26.423Z,96.43
2023-07-06T12:08:26.432Z,97.74
2023-07-06T12:09:26.454Z,95.28
2023-07-06T12:10:26.455Z,95.77
2023-07-06T12:11:26.441Z,95.48
2023-07-06T12:12:26.436Z,96.39
2023-07-06T12:13:26.544Z,97.70
2023-07-06T12:14:26.467Z,99.12
2023-07-06T12:15:26.465Z,99.68
2023-07-06T12:16:26.524Z,94.03
2023-07-06T12:17:26.489Z,97.78
2023-07-06T12:18:26.526Z,98.47
2023-07-06T12:19:26.532Z,100.63
2023-07-06T12:20:26.562Z,99.99
2023-07-06T12:21:26.547Z,103.45
2023-07-06T12:22:26.569Z,104.23
2023-07-06T12:23:26.568Z,105.76
2023-07-06T12:24:26.581Z,105.42
2023-07-06T12:25:26.604Z,108.73
2023-07-06T12:26:26.671Z,109.70
2023-07-06T12:27:26.603Z,106.75
2023-07-06T12:28:26.615Z,109.82
2023-07-06T12:29:26.635Z,111.94
2023-07-06T12:30:26.645Z,113.42
2023-07-06T12:31:26.712Z,112.32
2023-07-06T12:32:26.722Z,109.34
2023-07-06T12:33:26.710Z,111.65
2023-07-06T12:34:26.729Z,111.95
2023-07-06T12:35:26.779Z,111.78
2023-07-06T12:36:26.789Z,107.47
2023-07-06T12:37:26.764Z,104.26
2023-07-06T12:38:26.750Z,106.52